createdAt,value
2022-08-17T00:00:33.261Z,19.40
2022-08-17T00:03:02.923Z,19.40
2022-08-17T00:05:33.663Z,19.30
2022-08-17T00:08:01.973Z,19.30
2022-08-17T00:10:30.013Z,19.30
2022-08-17T00:13:00.527Z,19.20
2022-08-17T00:15:28.404Z,19.20
2022-08-17T00:17:56.353Z,19.20
2022-08-17T00:20:33.425Z,19.20
2022-08-17T00:23:05.345Z,19.20
2022-08-17T00:25:33.432Z,19.10
2022-08-17T00:28:02.022Z,19.00
2022-08-17T00:30:30.325Z,19.00
2022-08-17T00:33:25.809Z,19.00
2022-08-17T00:35:54.406Z,19.00
2022-08-17T00:38:24.198Z,19.00
2022-08-17T00:40:55.982Z,19.00
2022-08-17T00:43:29.290Z,19.00
2022-08-17T00:45:57.669Z,19.10
2022-08-17T00:48:30.102Z,19.10
2022-08-17T00:51:00.903Z,19.10
2022-08-17T00:53:31.383Z,19.20
2022-08-17T00:56:00.879Z,19.10
2022-08-17T00:58:35.904Z,19.00
2022-08-17T01:01:05.680Z,19.00
2022-08-17T01:03:33.937Z,19.00
2022-08-17T01:06:02.712Z,18.90
2022-08-17T01:08:32.491Z,18.90
2022-08-17T01:11:02.390Z,19.00
2022-08-17T01:13:38.173Z,19.00
2022-08-17T01:16:11.315Z,19.10
2022-08-17T01:18:39.392Z,19.20
2022-08-17T01:21:10.127Z,19.20
2022-08-17T01:23:41.961Z,19.20
2022-08-17T01:26:10.001Z,19.30
2022-08-17T01:28:54.373Z,19.30
2022-08-17T01:31:23.708Z,19.30
2022-08-17T01:33:51.590Z,19.30
2022-08-17T01:36:19.506Z,19.30
2022-08-17T01:38:48.780Z,19.30
2022-08-17T01:41:17.559Z,19.20
2022-08-17T01:43:46.703Z,19.30
2022-08-17T01:46:16.646Z,19.20
2022-08-17T01:48:47.444Z,19.20
2022-08-17T01:51:15.914Z,19.10
2022-08-17T01:53:45.661Z,19.00
2022-08-17T01:56:16.357Z,19.00
2022-08-17T01:58:44.363Z,19.00
2022-08-17T02:01:16.618Z,18.90
2022-08-17T02:03:59.149Z,18.90
2022-08-17T02:06:29.374Z,18.90
2022-08-17T02:09:02.534Z,18.90
2022-08-17T02:11:34.528Z,18.80
2022-08-17T02:14:04.137Z,18.80
2022-08-17T02:16:36.862Z,18.80
2022-08-17T02:19:07.624Z,18.80
2022-08-17T02:21:35.692Z,18.80
2022-08-17T02:24:04.354Z,18.80
2022-08-17T02:26:33.626Z,18.80
2022-08-17T02:29:01.943Z,18.80
2022-08-17T02:31:30.040Z,18.80
2022-08-17T02:34:04.702Z,18.70
2022-08-17T02:36:33.594Z,18.70
2022-08-17T02:39:01.880Z,18.70
2022-08-17T02:41:29.776Z,18.80
2022-08-17T02:43:59.026Z,18.80
2022-08-17T02:46:27.014Z,18.80
2022-08-17T02:48:54.983Z,18.80
2022-08-17T02:51:22.956Z,18.80
2022-08-17T02:53:50.970Z,18.80
2022-08-17T02:56:19.140Z,18.80
2022-08-17T02:58:47.302Z,18.80
2022-08-17T03:01:16.655Z,18.80
2022-08-17T03:03:44.602Z,18.80
2022-08-17T03:06:12.598Z,18.80
2022-08-17T03:08:40.583Z,18.80
2022-08-17T03:11:08.510Z,18.80
2022-08-17T03:13:36.406Z,18.70
2022-08-17T03:16:04.499Z,18.70
2022-08-17T03:18:33.713Z,18.80
2022-08-17T03:21:04.191Z,18.80
2022-08-17T03:23:32.727Z,18.80
2022-08-17T03:26:01.279Z,18.80
2022-08-17T03:28:30.144Z,18.80
2022-08-17T03:30:58.335Z,18.80
2022-08-17T03:33:26.285Z,18.70
2022-08-17T03:35:55.713Z,18.70
2022-08-17T03:38:23.739Z,18.70
2022-08-17T03:40:59.140Z,18.70
2022-08-17T03:43:28.556Z,18.70
2022-08-17T03:46:27.607Z,18.70
2022-08-17T03:49:15.005Z,18.70
2022-08-17T03:52:01.457Z,18.70
2022-08-17T03:54:46.941Z,18.70
2022-08-17T03:57:14.952Z,18.80
2022-08-17T03:59:42.869Z,18.80
2022-08-17T04:02:15.255Z,18.70
2022-08-17T04:04:43.351Z,18.70
2022-08-17T04:07:12.700Z,18.70
2022-08-17T04:09:40.672Z,18.70
2022-08-17T04:12:08.725Z,18.70
2022-08-17T04:14:51.762Z,18.80
2022-08-17T04:17:22.197Z,18.80
2022-08-17T04:19:50.077Z,18.80
2022-08-17T04:22:33.070Z,18.70
2022-08-17T04:25:03.129Z,18.70
2022-08-17T04:27:31.040Z,18.60
2022-08-17T04:29:59.540Z,18.50
2022-08-17T04:33:04.214Z,18.50
2022-08-17T04:35:18.421Z,18.50
2022-08-17T04:37:47.921Z,18.40
2022-08-17T04:40:33.821Z,18.50
2022-08-17T04:43:02.802Z,18.60
2022-08-17T04:45:32.313Z,18.60
2022-08-17T04:48:00.909Z,18.80
2022-08-17T04:50:28.925Z,18.80
2022-08-17T04:53:01.692Z,18.90
2022-08-17T04:55:29.864Z,19.00
2022-08-17T04:58:00.260Z,19.10
2022-08-17T05:00:28.240Z,19.20
2022-08-17T05:02:56.583Z,19.30
2022-08-17T05:05:26.287Z,19.40
2022-08-17T05:07:54.635Z,19.50
2022-08-17T05:10:24.505Z,19.60
2022-08-17T05:12:58.107Z,19.80
2022-08-17T05:15:26.109Z,20.00
2022-08-17T05:17:54.297Z,20.30
2022-08-17T05:20:22.211Z,20.60
2022-08-17T05:22:51.186Z,21.10
2022-08-17T05:25:20.190Z,21.40
2022-08-17T05:27:54.388Z,21.80
2022-08-17T05:30:22.769Z,22.10
2022-08-17T05:32:55.057Z,22.50
2022-08-17T05:35:23.629Z,22.80
2022-08-17T05:37:51.954Z,23.10
2022-08-17T05:40:20.834Z,23.30
2022-08-17T05:42:49.002Z,23.40
2022-08-17T05:45:32.142Z,23.30
2022-08-17T05:48:08.822Z,23.70
2022-08-17T05:50:41.409Z,24.50
2022-08-17T05:53:13.796Z,24.80
2022-08-17T05:55:46.705Z,24.20
2022-08-17T05:58:19.584Z,23.90
2022-08-17T06:00:52.393Z,23.70
2022-08-17T06:03:26.490Z,23.40
2022-08-17T06:06:09.811Z,23.40
2022-08-17T06:08:41.927Z,23.50
2022-08-17T06:11:15.787Z,23.60
2022-08-17T06:13:52.856Z,23.70
2022-08-17T06:16:34.211Z,23.60
2022-08-17T06:19:05.288Z,23.60
2022-08-17T06:21:36.064Z,23.70
2022-08-17T06:24:06.767Z,23.60
2022-08-17T06:26:41.062Z,23.50
2022-08-17T06:29:18.721Z,23.50
2022-08-17T06:31:48.860Z,23.30
2022-08-17T06:34:16.855Z,23.30
2022-08-17T06:36:49.623Z,23.50
2022-08-17T06:39:26.486Z,23.30
2022-08-17T06:41:57.860Z,23.10
2022-08-17T06:44:42.172Z,22.80
2022-08-17T06:47:28.680Z,22.70
2022-08-17T06:50:01.326Z,22.60
2022-08-17T06:52:55.544Z,22.50
2022-08-17T06:55:22.375Z,22.50
2022-08-17T06:57:51.991Z,22.60
2022-08-17T07:00:22.276Z,22.70
2022-08-17T07:02:55.590Z,22.90
2022-08-17T07:05:24.966Z,23.10
2022-08-17T07:08:03.113Z,23.50
2022-08-17T07:10:36.380Z,23.70
2022-08-17T07:13:12.165Z,24.00
2022-08-17T07:15:42.876Z,24.20
2022-08-17T07:18:12.181Z,24.70
2022-08-17T07:20:43.545Z,24.90
2022-08-17T07:23:17.376Z,24.60
2022-08-17T07:25:45.280Z,24.50
2022-08-17T07:28:13.164Z,24.50
2022-08-17T07:30:47.004Z,24.40
2022-08-17T07:33:20.405Z,24.40
2022-08-17T07:35:49.976Z,24.40
2022-08-17T07:38:25.913Z,24.30
2022-08-17T07:41:02.529Z,24.20
2022-08-17T07:43:31.664Z,24.00
2022-08-17T07:46:32.550Z,23.90
2022-08-17T07:49:15.313Z,23.90
2022-08-17T07:51:55.442Z,24.00
2022-08-17T07:54:28.116Z,24.00
2022-08-17T07:56:56.805Z,24.00
2022-08-17T07:59:28.612Z,24.10
2022-08-17T08:02:05.374Z,24.00
2022-08-17T08:04:58.846Z,23.80
2022-08-17T08:07:27.179Z,23.90
2022-08-17T08:10:01.859Z,24.00
2022-08-17T08:12:33.808Z,24.20
2022-08-17T08:15:03.634Z,24.10
2022-08-17T08:17:35.878Z,23.80
2022-08-17T08:20:37.774Z,23.60
2022-08-17T08:23:00.953Z,23.40
2022-08-17T08:25:33.731Z,23.10
2022-08-17T08:28:07.407Z,23.00
2022-08-17T08:30:37.222Z,22.60
2022-08-17T08:33:23.036Z,22.40
2022-08-17T08:35:53.706Z,22.30
2022-08-17T08:38:30.832Z,22.10
2022-08-17T08:41:05.600Z,22.00
2022-08-17T08:43:37.239Z,22.00
2022-08-17T08:46:08.654Z,22.10
2022-08-17T08:49:02.668Z,22.20
2022-08-17T08:51:42.953Z,22.40
2022-08-17T08:54:16.483Z,22.40
2022-08-17T08:57:19.777Z,22.50
2022-08-17T08:59:45.044Z,22.90
2022-08-17T09:02:34.587Z,23.30
2022-08-17T09:05:16.501Z,23.90
2022-08-17T09:07:50.271Z,24.40
2022-08-17T09:10:26.600Z,25.20
2022-08-17T09:13:05.964Z,25.70
2022-08-17T09:15:41.447Z,26.00
2022-08-17T09:21:03.852Z,26.20
2022-08-17T09:23:36.763Z,25.90
2022-08-17T09:26:13.135Z,25.50
2022-08-17T09:28:44.752Z,25.40
2022-08-17T09:31:16.324Z,25.20
2022-08-17T09:33:46.082Z,25.10
2022-08-17T09:36:20.228Z,25.10
2022-08-17T09:38:54.081Z,25.60
2022-08-17T09:41:28.343Z,26.20
2022-08-17T09:44:01.321Z,26.60
2022-08-17T09:46:31.914Z,27.20
2022-08-17T09:49:04.541Z,27.90
2022-08-17T09:51:34.533Z,28.50
2022-08-17T09:54:34.864Z,29.20
2022-08-17T09:57:25.956Z,29.90
2022-08-17T09:59:51.844Z,30.30
2022-08-17T10:02:36.007Z,30.40
2022-08-17T10:05:06.677Z,30.70
2022-08-17T10:07:38.363Z,30.40
2022-08-17T10:10:14.205Z,30.50
2022-08-17T10:12:48.520Z,30.40
2022-08-17T10:15:27.660Z,30.70
2022-08-17T10:18:07.979Z,31.30
2022-08-17T10:20:40.584Z,32.60
2022-08-17T10:23:31.017Z,34.20
2022-08-17T10:26:22.984Z,35.10
2022-08-17T10:28:54.366Z,36.50
2022-08-17T10:31:35.766Z,37.20
2022-08-17T10:34:22.938Z,38.10
2022-08-17T10:36:55.427Z,38.30
2022-08-17T10:39:29.086Z,38.00
2022-08-17T10:42:00.620Z,36.80
2022-08-17T10:44:37.094Z,36.10
2022-08-17T10:47:08.783Z,35.50
2022-08-17T10:49:37.356Z,34.40
2022-08-17T10:52:26.318Z,33.20
2022-08-17T10:55:12.387Z,31.90
2022-08-17T10:57:41.868Z,30.50
2022-08-17T11:00:30.917Z,29.30
2022-08-17T11:03:01.080Z,28.40
2022-08-17T11:05:45.243Z,27.70
2022-08-17T11:08:27.295Z,27.50
2022-08-17T11:11:10.480Z,27.20
2022-08-17T11:13:41.167Z,27.00
2022-08-17T11:16:18.016Z,26.90
2022-08-17T11:19:05.097Z,26.70
2022-08-17T11:21:46.455Z,26.80
2022-08-17T11:24:15.761Z,26.90
2022-08-17T11:26:47.683Z,26.90
2022-08-17T11:29:20.474Z,27.00
2022-08-17T11:32:01.303Z,27.30
2022-08-17T11:34:31.997Z,27.60
2022-08-17T11:37:21.209Z,28.20
2022-08-17T11:40:05.033Z,28.60
2022-08-17T11:42:47.197Z,29.50
2022-08-17T11:45:32.262Z,29.90
2022-08-17T11:48:28.189Z,29.80
2022-08-17T11:51:24.621Z,29.80
2022-08-17T11:54:30.539Z,30.40
2022-08-17T11:56:50.132Z,30.90
2022-08-17T11:59:37.398Z,31.90
2022-08-17T12:02:31.754Z,32.50
2022-08-17T12:05:13.188Z,32.50
2022-08-17T12:07:44.752Z,32.00
2022-08-17T12:10:16.120Z,31.90
2022-08-17T12:12:45.366Z,31.80
2022-08-17T12:15:17.975Z,31.50
2022-08-17T12:17:53.036Z,31.00
2022-08-17T12:20:24.122Z,30.80
2022-08-17T12:23:00.938Z,30.60
2022-08-17T12:25:34.992Z,30.60
2022-08-17T12:28:06.223Z,30.50
2022-08-17T12:30:36.383Z,30.30
2022-08-17T12:33:04.873Z,29.70
2022-08-17T12:35:35.216Z,29.30
2022-08-17T12:38:31.929Z,29.20
2022-08-17T12:40:58.127Z,29.00
2022-08-17T12:43:29.316Z,29.00
2022-08-17T12:45:59.458Z,29.00
2022-08-17T12:48:28.687Z,29.10
2022-08-17T12:51:00.460Z,29.30
2022-08-17T12:53:31.093Z,29.60
2022-08-17T12:56:00.217Z,30.10
2022-08-17T12:58:30.283Z,30.30
2022-08-17T13:01:01.348Z,30.40
2022-08-17T13:03:36.360Z,30.20
2022-08-17T13:06:06.670Z,30.40
2022-08-17T13:08:37.646Z,30.70
2022-08-17T13:11:08.500Z,30.90
2022-08-17T13:13:38.414Z,31.30
2022-08-17T13:16:09.585Z,31.30
2022-08-17T13:18:40.140Z,31.30
2022-08-17T13:21:12.626Z,31.20
2022-08-17T13:23:50.923Z,31.00
2022-08-17T13:26:27.790Z,30.60
2022-08-17T13:28:56.336Z,30.40
2022-08-17T13:31:33.042Z,30.30
2022-08-17T13:34:16.802Z,30.60
2022-08-17T13:36:48.768Z,30.90
2022-08-17T13:39:21.431Z,31.40
2022-08-17T13:41:50.241Z,31.40
2022-08-17T13:44:31.171Z,31.60
2022-08-17T13:46:59.704Z,32.10
2022-08-17T13:49:48.165Z,32.70
2022-08-17T13:52:34.242Z,33.40
2022-08-17T13:55:06.155Z,34.20
2022-08-17T13:57:34.583Z,34.90
2022-08-17T14:00:10.294Z,35.10
2022-08-17T14:02:38.661Z,35.20
2022-08-17T14:05:07.079Z,35.10
2022-08-17T14:07:36.249Z,35.10
2022-08-17T14:10:08.421Z,35.50
2022-08-17T14:12:38.691Z,35.80
2022-08-17T14:15:07.650Z,35.70
2022-08-17T14:17:38.934Z,35.90
2022-08-17T14:20:09.407Z,36.00
2022-08-17T14:22:39.164Z,36.40
2022-08-17T14:25:10.692Z,36.30
2022-08-17T14:27:51.904Z,36.00
2022-08-17T14:30:22.373Z,36.10
2022-08-17T14:32:52.117Z,36.40
2022-08-17T14:35:22.271Z,36.50
2022-08-17T14:37:50.783Z,36.40
2022-08-17T14:40:24.681Z,36.40
2022-08-17T14:42:54.233Z,36.70
2022-08-17T14:45:31.926Z,36.90
2022-08-17T14:48:01.719Z,36.60
2022-08-17T14:50:29.868Z,36.30
2022-08-17T14:53:01.630Z,35.90
2022-08-17T14:55:32.515Z,35.70
2022-08-17T14:58:00.610Z,36.00
2022-08-17T15:00:28.725Z,36.30
2022-08-17T15:02:58.406Z,36.30
2022-08-17T15:05:31.596Z,35.80
2022-08-17T15:08:00.961Z,35.60
2022-08-17T15:10:29.899Z,35.40
2022-08-17T15:13:00.540Z,35.20
2022-08-17T15:15:32.166Z,34.90
2022-08-17T15:18:01.164Z,34.40
2022-08-17T15:20:30.583Z,34.10
2022-08-17T15:22:59.424Z,34.20
2022-08-17T15:25:28.734Z,34.10
2022-08-17T15:27:56.923Z,34.10
2022-08-17T15:30:26.980Z,34.10
2022-08-17T15:32:55.740Z,34.20
2022-08-17T15:35:28.359Z,34.40
2022-08-17T15:37:57.776Z,34.30
2022-08-17T15:40:26.238Z,34.40
2022-08-17T15:42:54.307Z,34.40
2022-08-17T15:45:24.587Z,34.40
2022-08-17T15:47:54.196Z,34.30
2022-08-17T15:50:22.544Z,34.20
2022-08-17T15:52:55.437Z,34.10
2022-08-17T15:55:24.308Z,34.30
2022-08-17T15:57:53.221Z,34.40
2022-08-17T16:00:26.036Z,34.50
2022-08-17T16:03:45.129Z,34.50
2022-08-17T16:05:44.302Z,34.50
2022-08-17T16:08:20.084Z,34.10
2022-08-17T16:10:49.364Z,34.00
2022-08-17T16:13:18.209Z,33.70
2022-08-17T16:15:53.058Z,33.60
2022-08-17T16:18:30.771Z,33.30
2022-08-17T16:21:19.286Z,33.00
2022-08-17T16:23:47.804Z,32.80
2022-08-17T16:26:16.129Z,32.60
2022-08-17T16:28:44.349Z,32.20
2022-08-17T16:31:12.487Z,31.80
2022-08-17T16:33:42.251Z,31.70
2022-08-17T16:36:30.156Z,31.50
2022-08-17T16:38:58.281Z,31.20
2022-08-17T16:41:45.253Z,31.00
2022-08-17T16:44:15.282Z,30.90
2022-08-17T16:46:45.633Z,30.80
2022-08-17T16:49:33.632Z,30.50
2022-08-17T16:52:04.921Z,30.20
2022-08-17T16:54:35.586Z,29.90
2022-08-17T16:57:05.147Z,29.80
2022-08-17T16:59:42.134Z,29.70
2022-08-17T17:02:13.626Z,29.60
2022-08-17T17:04:45.324Z,29.50
2022-08-17T17:07:21.070Z,29.50
2022-08-17T17:09:52.640Z,29.50
2022-08-17T17:12:32.309Z,29.50
2022-08-17T17:15:09.104Z,29.50
2022-08-17T17:17:37.812Z,29.50
2022-08-17T17:20:09.588Z,29.40
2022-08-17T17:22:42.527Z,29.30
2022-08-17T17:25:13.615Z,29.20
2022-08-17T17:27:43.981Z,29.10
2022-08-17T17:30:16.361Z,29.10
2022-08-17T17:32:46.879Z,29.00
2022-08-17T17:35:18.850Z,29.00
2022-08-17T17:37:47.641Z,28.90
2022-08-17T17:40:17.452Z,28.80
2022-08-17T17:42:45.786Z,28.80
2022-08-17T17:45:17.506Z,28.70
2022-08-17T17:47:45.886Z,28.70
2022-08-17T17:50:14.132Z,28.60
2022-08-17T17:52:48.124Z,28.50
2022-08-17T17:55:24.062Z,28.50
2022-08-17T17:57:58.652Z,28.40
2022-08-17T18:00:29.041Z,28.30
2022-08-17T18:03:04.237Z,28.20
2022-08-17T18:05:48.425Z,28.10
2022-08-17T18:08:32.262Z,28.00
2022-08-17T18:11:07.985Z,27.90
2022-08-17T18:13:44.849Z,27.90
2022-08-17T18:16:15.671Z,27.80
2022-08-17T18:18:44.772Z,27.70
2022-08-17T18:21:16.814Z,27.70
2022-08-17T18:23:52.372Z,27.70
2022-08-17T18:26:42.013Z,27.60
2022-08-17T18:29:31.509Z,27.60
2022-08-17T18:32:16.566Z,27.50
2022-08-17T18:34:47.698Z,27.40
2022-08-17T18:37:30.279Z,27.30
2022-08-17T18:39:59.630Z,27.20
2022-08-17T18:42:29.121Z,27.10
2022-08-17T18:44:57.084Z,27.10
2022-08-17T18:47:25.984Z,27.00
2022-08-17T18:49:57.449Z,26.90
2022-08-17T18:52:27.657Z,26.80
2022-08-17T18:55:08.575Z,26.70
2022-08-17T18:57:38.064Z,26.60
2022-08-17T19:00:12.033Z,26.50
2022-08-17T19:02:50.142Z,26.40
2022-08-17T19:05:27.719Z,26.20
2022-08-17T19:07:55.814Z,26.20
2022-08-17T19:10:28.253Z,26.10
2022-08-17T19:13:00.286Z,26.00
2022-08-17T19:15:32.170Z,25.90
2022-08-17T19:18:03.325Z,25.80
2022-08-17T19:20:33.099Z,25.80
2022-08-17T19:23:04.756Z,25.80
2022-08-17T19:25:35.510Z,25.80
2022-08-17T19:28:21.889Z,25.70
2022-08-17T19:30:51.446Z,25.70
2022-08-17T19:33:20.003Z,25.60
2022-08-17T19:35:51.459Z,25.50
2022-08-17T19:38:26.069Z,25.40
2022-08-17T19:41:01.589Z,25.30
2022-08-17T19:43:38.017Z,25.10
2022-08-17T19:46:12.667Z,25.00
2022-08-17T19:48:47.444Z,25.00
2022-08-17T19:51:18.673Z,24.90
2022-08-17T19:54:04.893Z,24.80
2022-08-17T19:56:41.010Z,24.70
2022-08-17T19:59:12.919Z,24.60
2022-08-17T20:01:45.081Z,24.60
2022-08-17T20:04:17.354Z,24.60
2022-08-17T20:06:47.081Z,24.60
2022-08-17T20:09:21.017Z,24.50
2022-08-17T20:11:55.964Z,24.40
2022-08-17T20:14:25.373Z,24.40
2022-08-17T20:16:53.537Z,24.30
2022-08-17T20:19:24.125Z,24.20
2022-08-17T20:21:55.080Z,24.10
2022-08-17T20:24:26.928Z,24.00
2022-08-17T20:26:58.362Z,23.80
2022-08-17T20:29:37.194Z,23.70
2022-08-17T20:32:18.007Z,23.60
2022-08-17T20:34:47.567Z,23.40
2022-08-17T20:37:30.527Z,23.30
2022-08-17T20:40:21.807Z,23.20
2022-08-17T20:42:51.082Z,23.10
2022-08-17T20:45:37.799Z,23.00
2022-08-17T20:51:12.820Z,23.00
2022-08-17T20:54:06.936Z,23.00
2022-08-17T20:56:50.193Z,23.00
2022-08-17T20:59:37.206Z,22.90
2022-08-17T21:02:18.419Z,22.80
2022-08-17T21:05:00.161Z,22.70
2022-08-17T21:07:30.154Z,22.60
2022-08-17T21:10:16.023Z,22.50
2022-08-17T21:12:47.974Z,22.30
2022-08-17T21:15:24.267Z,22.20
2022-08-17T21:17:59.290Z,22.10
2022-08-17T21:20:32.956Z,22.00
2022-08-17T21:23:09.429Z,22.00
2022-08-17T21:25:51.233Z,21.90
2022-08-17T21:28:22.798Z,21.80
2022-08-17T21:30:59.088Z,21.70
2022-08-17T21:33:31.577Z,21.60
2022-08-17T21:36:15.164Z,21.60
2022-08-17T21:38:53.430Z,21.50
2022-08-17T21:41:27.526Z,21.50
2022-08-17T21:44:01.687Z,21.50
2022-08-17T21:46:30.597Z,21.50
2022-08-17T21:49:09.172Z,21.40
2022-08-17T21:51:45.276Z,21.40
2022-08-17T21:54:26.946Z,21.40
2022-08-17T21:56:55.324Z,21.40
2022-08-17T21:59:27.307Z,21.40
2022-08-17T22:01:57.587Z,21.40
2022-08-17T22:04:28.930Z,21.40
2022-08-17T22:06:57.882Z,21.40
2022-08-17T22:09:27.149Z,21.30
2022-08-17T22:11:58.110Z,21.20
2022-08-17T22:14:52.913Z,21.00
2022-08-17T22:17:18.619Z,20.90
2022-08-17T22:19:48.984Z,20.80
2022-08-17T22:22:26.788Z,20.70
2022-08-17T22:24:57.565Z,20.60
2022-08-17T22:27:40.497Z,20.60
2022-08-17T22:30:15.534Z,20.60
2022-08-17T22:32:44.636Z,20.60
2022-08-17T22:35:26.440Z,20.50
2022-08-17T22:37:54.367Z,20.50
2022-08-17T22:40:26.666Z,20.50
2022-08-17T22:42:54.538Z,20.50
2022-08-17T22:45:24.280Z,20.60
2022-08-17T22:47:55.559Z,20.60
2022-08-17T22:50:27.370Z,20.70
2022-08-17T22:53:17.365Z,20.80
2022-08-17T22:56:10.131Z,20.80
2022-08-17T22:59:00.375Z,20.80
2022-08-17T23:01:29.467Z,20.90
2022-08-17T23:03:58.415Z,20.90
2022-08-17T23:06:28.043Z,20.90
2022-08-17T23:08:57.681Z,20.90
2022-08-17T23:11:36.698Z,20.80
2022-08-17T23:14:15.629Z,20.70
2022-08-17T23:16:43.735Z,20.60
2022-08-17T23:19:12.238Z,20.50
2022-08-17T23:21:42.006Z,20.50
2022-08-17T23:24:10.736Z,20.50
2022-08-17T23:26:40.920Z,20.40
2022-08-17T23:29:08.966Z,20.40
2022-08-17T23:31:38.506Z,20.40
2022-08-17T23:34:10.981Z,20.50
2022-08-17T23:36:38.954Z,20.50
2022-08-17T23:39:08.640Z,20.50
2022-08-17T23:41:39.910Z,20.50
2022-08-17T23:44:08.231Z,20.50
2022-08-17T23:46:36.089Z,20.60
2022-08-17T23:49:04.009Z,20.60
2022-08-17T23:51:34.513Z,20.70
2022-08-17T23:54:07.917Z,20.70
2022-08-17T23:56:42.206Z,20.60
2022-08-17T23:59:10.118Z,20.50
